sensor_id;sensor_type;location;lat;lon;timestamp;P1;durP1;ratioP1;P2;durP2;ratioP2
13222;SDS011;6676;45.192;5.722;2023-04-03T00:02:09;0.40;;;0.40;;
13222;SDS011;6676;45.192;5.722;2023-04-03T00:05:00;0.40;;;0.40;;
13222;SDS011;6676;45.192;5.722;2023-04-03T00:07:53;0.47;;;0.30;;
13222;SDS011;6676;45.192;5.722;2023-04-03T00:10:44;0.40;;;0.30;;
13222;SDS011;6676;45.192;5.722;2023-04-03T00:13:35;0.30;;;0.20;;
13222;SDS011;6676;45.192;5.722;2023-04-03T00:16:27;0.95;;;0.57;;
13222;SDS011;6676;45.192;5.722;2023-04-03T00:19:19;0.50;;;0.30;;
13222;SDS011;6676;45.192;5.722;2023-04-03T00:22:10;0.20;;;0.20;;
13222;SDS011;6676;45.192;5.722;2023-04-03T00:25:02;0.37;;;0.37;;
13222;SDS011;6676;45.192;5.722;2023-04-03T00:27:53;0.28;;;0.20;;
13222;SDS011;6676;45.192;5.722;2023-04-03T00:30:45;0.50;;;0.20;;
13222;SDS011;6676;45.192;5.722;2023-04-03T00:33:37;0.30;;;0.23;;
13222;SDS011;6676;45.192;5.722;2023-04-03T00:36:29;0.72;;;0.40;;
13222;SDS011;6676;45.192;5.722;2023-04-03T00:39:21;0.57;;;0.57;;
13222;SDS011;6676;45.192;5.722;2023-04-03T00:42:12;0.20;;;0.20;;
13222;SDS011;6676;45.192;5.722;2023-04-03T00:45:25;0.30;;;0.30;;
13222;SDS011;6676;45.192;5.722;2023-04-03T00:48:20;0.37;;;0.30;;
13222;SDS011;6676;45.192;5.722;2023-04-03T00:51:14;0.20;;;0.20;;
13222;SDS011;6676;45.192;5.722;2023-04-03T00:54:08;0.30;;;0.30;;
13222;SDS011;6676;45.192;5.722;2023-04-03T00:57:00;1.05;;;0.50;;
13222;SDS011;6676;45.192;5.722;2023-04-03T00:59:54;0.30;;;0.23;;
13222;SDS011;6676;45.192;5.722;2023-04-03T01:02:48;0.30;;;0.30;;
13222;SDS011;6676;45.192;5.722;2023-04-03T01:05:40;0.50;;;0.30;;
13222;SDS011;6676;45.192;5.722;2023-04-03T01:08:32;1.32;;;0.30;;
13222;SDS011;6676;45.192;5.722;2023-04-03T01:11:24;0.72;;;0.70;;
13222;SDS011;6676;45.192;5.722;2023-04-03T01:14:16;0.20;;;0.20;;
13222;SDS011;6676;45.192;5.722;2023-04-03T01:17:22;1.65;;;0.30;;
13222;SDS011;6676;45.192;5.722;2023-04-03T01:23:39;0.50;;;0.40;;
13222;SDS011;6676;45.192;5.722;2023-04-03T01:26:44;0.50;;;0.28;;
13222;SDS011;6676;45.192;5.722;2023-04-03T01:29:35;0.23;;;0.23;;
13222;SDS011;6676;45.192;5.722;2023-04-03T01:32:28;0.40;;;0.40;;
13222;SDS011;6676;45.192;5.722;2023-04-03T01:35:20;0.75;;;0.40;;
13222;SDS011;6676;45.192;5.722;2023-04-03T01:38:12;2.35;;;0.50;;
13222;SDS011;6676;45.192;5.722;2023-04-03T01:41:03;1.47;;;0.35;;
13222;SDS011;6676;45.192;5.722;2023-04-03T01:43:55;1.40;;;0.50;;
13222;SDS011;6676;45.192;5.722;2023-04-03T01:46:46;0.57;;;0.50;;
13222;SDS011;6676;45.192;5.722;2023-04-03T01:49:38;0.37;;;0.37;;
13222;SDS011;6676;45.192;5.722;2023-04-03T01:52:30;0.62;;;0.53;;
13222;SDS011;6676;45.192;5.722;2023-04-03T01:55:22;0.70;;;0.40;;
13222;SDS011;6676;45.192;5.722;2023-04-03T01:58:13;0.93;;;0.50;;
13222;SDS011;6676;45.192;5.722;2023-04-03T02:01:05;0.62;;;0.60;;
13222;SDS011;6676;45.192;5.722;2023-04-03T02:03:57;0.78;;;0.50;;
13222;SDS011;6676;45.192;5.722;2023-04-03T02:06:49;1.20;;;0.60;;
13222;SDS011;6676;45.192;5.722;2023-04-03T02:09:41;0.50;;;0.50;;
13222;SDS011;6676;45.192;5.722;2023-04-03T02:12:33;0.93;;;0.65;;
13222;SDS011;6676;45.192;5.722;2023-04-03T02:15:24;0.68;;;0.50;;
13222;SDS011;6676;45.192;5.722;2023-04-03T02:18:16;0.80;;;0.60;;
13222;SDS011;6676;45.192;5.722;2023-04-03T02:21:08;0.50;;;0.50;;
13222;SDS011;6676;45.192;5.722;2023-04-03T02:24:00;0.80;;;0.65;;
13222;SDS011;6676;45.192;5.722;2023-04-03T02:26:51;0.70;;;0.68;;
13222;SDS011;6676;45.192;5.722;2023-04-03T02:29:43;0.57;;;0.57;;
13222;SDS011;6676;45.192;5.722;2023-04-03T02:32:35;0.60;;;0.60;;
13222;SDS011;6676;45.192;5.722;2023-04-03T02:35:26;2.00;;;0.90;;
13222;SDS011;6676;45.192;5.722;2023-04-03T02:38:18;1.07;;;0.55;;
13222;SDS011;6676;45.192;5.722;2023-04-03T02:41:10;1.17;;;0.50;;
13222;SDS011;6676;45.192;5.722;2023-04-03T02:44:02;0.90;;;0.50;;
13222;SDS011;6676;45.192;5.722;2023-04-03T02:46:54;0.70;;;0.50;;
13222;SDS011;6676;45.192;5.722;2023-04-03T02:49:46;0.50;;;0.50;;
13222;SDS011;6676;45.192;5.722;2023-04-03T02:52:38;0.80;;;0.60;;
13222;SDS011;6676;45.192;5.722;2023-04-03T02:55:29;1.30;;;0.68;;
13222;SDS011;6676;45.192;5.722;2023-04-03T02:58:20;0.85;;;0.72;;
13222;SDS011;6676;45.192;5.722;2023-04-03T03:01:13;0.68;;;0.62;;
13222;SDS011;6676;45.192;5.722;2023-04-03T03:04:04;0.42;;;0.37;;
13222;SDS011;6676;45.192;5.722;2023-04-03T03:06:56;1.07;;;0.57;;
13222;SDS011;6676;45.192;5.722;2023-04-03T03:09:48;0.85;;;0.50;;
13222;SDS011;6676;45.192;5.722;2023-04-03T03:12:40;0.80;;;0.65;;
13222;SDS011;6676;45.192;5.722;2023-04-03T03:15:31;0.80;;;0.80;;
13222;SDS011;6676;45.192;5.722;2023-04-03T03:18:22;0.60;;;0.60;;
13222;SDS011;6676;45.192;5.722;2023-04-03T03:21:14;0.60;;;0.60;;
13222;SDS011;6676;45.192;5.722;2023-04-03T03:24:06;0.80;;;0.70;;
13222;SDS011;6676;45.192;5.722;2023-04-03T03:26:58;0.50;;;0.50;;
13222;SDS011;6676;45.192;5.722;2023-04-03T03:29:49;1.15;;;0.80;;
13222;SDS011;6676;45.192;5.722;2023-04-03T03:32:42;0.75;;;0.75;;
13222;SDS011;6676;45.192;5.722;2023-04-03T03:35:34;0.75;;;0.62;;
13222;SDS011;6676;45.192;5.722;2023-04-03T03:38:25;0.60;;;0.60;;
13222;SDS011;6676;45.192;5.722;2023-04-03T03:41:18;1.00;;;0.80;;
13222;SDS011;6676;45.192;5.722;2023-04-03T03:44:10;0.60;;;0.60;;
13222;SDS011;6676;45.192;5.722;2023-04-03T03:47:02;0.70;;;0.70;;
13222;SDS011;6676;45.192;5.722;2023-04-03T03:49:55;0.42;;;0.42;;
13222;SDS011;6676;45.192;5.722;2023-04-03T03:52:46;0.70;;;0.70;;
13222;SDS011;6676;45.192;5.722;2023-04-03T03:55:37;0.90;;;0.90;;
13222;SDS011;6676;45.192;5.722;2023-04-03T03:58:29;1.00;;;0.90;;
13222;SDS011;6676;45.192;5.722;2023-04-03T04:01:22;1.20;;;1.00;;
13222;SDS011;6676;45.192;5.722;2023-04-03T04:04:14;1.10;;;1.00;;
13222;SDS011;6676;45.192;5.722;2023-04-03T04:07:06;1.10;;;0.93;;
13222;SDS011;6676;45.192;5.722;2023-04-03T04:09:59;1.10;;;0.95;;
13222;SDS011;6676;45.192;5.722;2023-04-03T04:12:51;1.40;;;1.30;;
13222;SDS011;6676;45.192;5.722;2023-04-03T04:15:44;1.55;;;1.27;;
13222;SDS011;6676;45.192;5.722;2023-04-03T04:18:37;1.67;;;1.27;;
13222;SDS011;6676;45.192;5.722;2023-04-03T04:21:28;1.52;;;1.42;;
13222;SDS011;6676;45.192;5.722;2023-04-03T04:24:20;1.40;;;1.30;;
13222;SDS011;6676;45.192;5.722;2023-04-03T04:27:12;1.55;;;1.45;;
13222;SDS011;6676;45.192;5.722;2023-04-03T04:30:08;2.00;;;1.90;;
13222;SDS011;6676;45.192;5.722;2023-04-03T04:33:03;2.10;;;1.90;;
13222;SDS011;6676;45.192;5.722;2023-04-03T04:35:57;2.12;;;1.92;;
13222;SDS011;6676;45.192;5.722;2023-04-03T04:38:51;1.60;;;1.50;;
13222;SDS011;6676;45.192;5.722;2023-04-03T04:41:43;3.62;;;1.92;;
13222;SDS011;6676;45.192;5.722;2023-04-03T04:44:34;4.58;;;1.85;;
13222;SDS011;6676;45.192;5.722;2023-04-03T04:47:28;1.70;;;1.60;;
13222;SDS011;6676;45.192;5.722;2023-04-03T04:50:19;2.40;;;1.65;;
13222;SDS011;6676;45.192;5.722;2023-04-03T04:53:11;1.70;;;1.60;;
13222;SDS011;6676;45.192;5.722;2023-04-03T04:56:03;1.42;;;1.32;;
13222;SDS011;6676;45.192;5.722;2023-04-03T04:58:57;1.80;;;1.70;;
13222;SDS011;6676;45.192;5.722;2023-04-03T05:01:49;1.90;;;1.80;;
13222;SDS011;6676;45.192;5.722;2023-04-03T05:04:41;2.22;;;2.02;;
13222;SDS011;6676;45.192;5.722;2023-04-03T05:07:34;2.10;;;1.90;;
13222;SDS011;6676;45.192;5.722;2023-04-03T05:10:26;1.90;;;1.77;;
13222;SDS011;6676;45.192;5.722;2023-04-03T05:13:18;2.27;;;1.80;;
13222;SDS011;6676;45.192;5.722;2023-04-03T05:16:10;2.20;;;2.00;;
13222;SDS011;6676;45.192;5.722;2023-04-03T05:19:02;2.05;;;1.85;;
13222;SDS011;6676;45.192;5.722;2023-04-03T05:21:53;1.70;;;1.60;;
13222;SDS011;6676;45.192;5.722;2023-04-03T05:24:46;3.45;;;2.70;;
13222;SDS011;6676;45.192;5.722;2023-04-03T05:27:38;1.77;;;1.67;;
13222;SDS011;6676;45.192;5.722;2023-04-03T05:30:32;1.60;;;1.50;;
13222;SDS011;6676;45.192;5.722;2023-04-03T05:33:24;1.82;;;1.72;;
13222;SDS011;6676;45.192;5.722;2023-04-03T05:36:18;2.05;;;1.30;;
13222;SDS011;6676;45.192;5.722;2023-04-03T05:39:11;1.60;;;1.50;;
13222;SDS011;6676;45.192;5.722;2023-04-03T05:42:04;1.52;;;1.30;;
13222;SDS011;6676;45.192;5.722;2023-04-03T05:44:55;1.60;;;1.50;;
13222;SDS011;6676;45.192;5.722;2023-04-03T05:47:47;2.12;;;1.62;;
13222;SDS011;6676;45.192;5.722;2023-04-03T05:50:40;1.90;;;1.60;;
13222;SDS011;6676;45.192;5.722;2023-04-03T05:53:35;1.80;;;1.70;;
13222;SDS011;6676;45.192;5.722;2023-04-03T05:56:27;2.27;;;1.67;;
13222;SDS011;6676;45.192;5.722;2023-04-03T05:59:19;4.08;;;3.65;;
13222;SDS011;6676;45.192;5.722;2023-04-03T06:02:12;2.92;;;1.80;;
13222;SDS011;6676;45.192;5.722;2023-04-03T06:05:07;1.92;;;1.82;;
13222;SDS011;6676;45.192;5.722;2023-04-03T06:08:01;1.87;;;1.77;;
13222;SDS011;6676;45.192;5.722;2023-04-03T06:10:53;1.80;;;1.70;;
13222;SDS011;6676;45.192;5.722;2023-04-03T06:13:45;1.40;;;1.30;;
13222;SDS011;6676;45.192;5.722;2023-04-03T06:16:38;2.45;;;1.55;;
13222;SDS011;6676;45.192;5.722;2023-04-03T06:19:30;1.77;;;1.65;;
13222;SDS011;6676;45.192;5.722;2023-04-03T06:22:21;1.55;;;1.45;;
13222;SDS011;6676;45.192;5.722;2023-04-03T06:25:13;1.60;;;1.17;;
13222;SDS011;6676;45.192;5.722;2023-04-03T06:28:06;1.35;;;0.90;;
13222;SDS011;6676;45.192;5.722;2023-04-03T06:30:58;1.25;;;1.15;;
13222;SDS011;6676;45.192;5.722;2023-04-03T06:36:29;1.25;;;1.15;;
13222;SDS011;6676;45.192;5.722;2023-04-03T06:39:21;1.42;;;1.20;;
13222;SDS011;6676;45.192;5.722;2023-04-03T06:42:12;1.70;;;0.70;;
13222;SDS011;6676;45.192;5.722;2023-04-03T06:45:09;0.65;;;0.65;;
13222;SDS011;6676;45.192;5.722;2023-04-03T06:48:00;1.05;;;0.60;;
13222;SDS011;6676;45.192;5.722;2023-04-03T06:50:52;0.72;;;0.60;;
13222;SDS011;6676;45.192;5.722;2023-04-03T06:53:43;1.25;;;0.57;;
13222;SDS011;6676;45.192;5.722;2023-04-03T06:59:14;0.88;;;0.55;;
13222;SDS011;6676;45.192;5.722;2023-04-03T07:02:08;0.60;;;0.60;;
13222;SDS011;6676;45.192;5.722;2023-04-03T07:05:01;0.70;;;0.70;;
13222;SDS011;6676;45.192;5.722;2023-04-03T07:07:54;0.60;;;0.60;;
13222;SDS011;6676;45.192;5.722;2023-04-03T07:10:45;0.40;;;0.40;;
13222;SDS011;6676;45.192;5.722;2023-04-03T07:13:36;0.50;;;0.50;;
13222;SDS011;6676;45.192;5.722;2023-04-03T07:16:28;0.37;;;0.37;;
13222;SDS011;6676;45.192;5.722;2023-04-03T07:19:19;0.37;;;0.30;;
13222;SDS011;6676;45.192;5.722;2023-04-03T07:22:13;0.50;;;0.50;;
13222;SDS011;6676;45.192;5.722;2023-04-03T07:24:53;0.40;;;0.40;;
13222;SDS011;6676;45.192;5.722;2023-04-03T07:27:44;0.30;;;0.30;;
13222;SDS011;6676;45.192;5.722;2023-04-03T07:30:35;1.32;;;0.50;;
13222;SDS011;6676;45.192;5.722;2023-04-03T07:33:33;0.78;;;0.40;;
13222;SDS011;6676;45.192;5.722;2023-04-03T07:36:25;1.25;;;0.60;;
13222;SDS011;6676;45.192;5.722;2023-04-03T07:39:17;0.70;;;0.53;;
13222;SDS011;6676;45.192;5.722;2023-04-03T07:42:08;1.40;;;0.60;;
13222;SDS011;6676;45.192;5.722;2023-04-03T07:45:00;1.25;;;0.65;;
13222;SDS011;6676;45.192;5.722;2023-04-03T07:47:53;0.90;;;0.70;;
13222;SDS011;6676;45.192;5.722;2023-04-03T07:50:44;1.20;;;0.60;;
13222;SDS011;6676;45.192;5.722;2023-04-03T07:53:36;2.55;;;0.95;;
13222;SDS011;6676;45.192;5.722;2023-04-03T07:56:27;1.20;;;1.10;;
13222;SDS011;6676;45.192;5.722;2023-04-03T07:59:19;2.05;;;1.20;;
13222;SDS011;6676;45.192;5.722;2023-04-03T08:02:11;1.65;;;1.50;;
13222;SDS011;6676;45.192;5.722;2023-04-03T08:05:03;1.60;;;1.35;;
13222;SDS011;6676;45.192;5.722;2023-04-03T08:07:55;1.47;;;1.30;;
13222;SDS011;6676;45.192;5.722;2023-04-03T08:10:48;1.15;;;0.80;;
13222;SDS011;6676;45.192;5.722;2023-04-03T08:13:40;1.60;;;1.50;;
13222;SDS011;6676;45.192;5.722;2023-04-03T08:16:31;1.32;;;1.10;;
13222;SDS011;6676;45.192;5.722;2023-04-03T08:19:23;1.57;;;1.30;;
13222;SDS011;6676;45.192;5.722;2023-04-03T08:22:15;1.30;;;1.20;;
13222;SDS011;6676;45.192;5.722;2023-04-03T08:25:07;2.00;;;1.12;;
13222;SDS011;6676;45.192;5.722;2023-04-03T08:27:59;2.33;;;1.27;;
13222;SDS011;6676;45.192;5.722;2023-04-03T08:30:51;1.37;;;1.17;;
13222;SDS011;6676;45.192;5.722;2023-04-03T08:33:42;1.77;;;1.67;;
13222;SDS011;6676;45.192;5.722;2023-04-03T08:36:34;1.62;;;1.52;;
13222;SDS011;6676;45.192;5.722;2023-04-03T08:39:26;1.67;;;1.57;;
13222;SDS011;6676;45.192;5.722;2023-04-03T08:42:19;2.50;;;1.50;;
13222;SDS011;6676;45.192;5.722;2023-04-03T08:45:15;1.70;;;1.60;;
13222;SDS011;6676;45.192;5.722;2023-04-03T08:48:12;1.67;;;1.57;;
13222;SDS011;6676;45.192;5.722;2023-04-03T08:50:54;3.05;;;1.70;;
13222;SDS011;6676;45.192;5.722;2023-04-03T08:53:52;2.25;;;1.87;;
13222;SDS011;6676;45.192;5.722;2023-04-03T08:56:45;2.17;;;1.98;;
13222;SDS011;6676;45.192;5.722;2023-04-03T08:59:37;1.82;;;1.72;;
13222;SDS011;6676;45.192;5.722;2023-04-03T09:02:31;1.80;;;1.70;;
13222;SDS011;6676;45.192;5.722;2023-04-03T09:05:29;2.20;;;2.00;;
13222;SDS011;6676;45.192;5.722;2023-04-03T09:08:27;1.77;;;1.47;;
13222;SDS011;6676;45.192;5.722;2023-04-03T09:11:23;1.62;;;1.52;;
13222;SDS011;6676;45.192;5.722;2023-04-03T09:14:18;1.90;;;1.52;;
13222;SDS011;6676;45.192;5.722;2023-04-03T09:17:13;2.08;;;1.50;;
13222;SDS011;6676;45.192;5.722;2023-04-03T09:20:10;1.80;;;1.70;;
13222;SDS011;6676;45.192;5.722;2023-04-03T09:23:28;2.00;;;1.80;;
13222;SDS011;6676;45.192;5.722;2023-04-03T09:26:23;1.80;;;1.70;;
13222;SDS011;6676;45.192;5.722;2023-04-03T09:29:17;1.67;;;1.10;;
13222;SDS011;6676;45.192;5.722;2023-04-03T09:32:19;1.90;;;1.67;;
13222;SDS011;6676;45.192;5.722;2023-04-03T09:35:24;1.35;;;1.20;;
13222;SDS011;6676;45.192;5.722;2023-04-03T09:38:18;1.57;;;1.47;;
13222;SDS011;6676;45.192;5.722;2023-04-03T09:41:15;1.50;;;1.40;;
13222;SDS011;6676;45.192;5.722;2023-04-03T09:44:22;2.35;;;1.55;;
13222;SDS011;6676;45.192;5.722;2023-04-03T09:47:19;1.70;;;1.60;;
13222;SDS011;6676;45.192;5.722;2023-04-03T09:50:19;1.75;;;1.52;;
13222;SDS011;6676;45.192;5.722;2023-04-03T09:53:25;1.15;;;1.05;;
13222;SDS011;6676;45.192;5.722;2023-04-03T09:56:20;2.20;;;1.57;;
13222;SDS011;6676;45.192;5.722;2023-04-03T10:02:00;1.65;;;1.55;;
13222;SDS011;6676;45.192;5.722;2023-04-03T10:04:54;3.22;;;1.95;;
13222;SDS011;6676;45.192;5.722;2023-04-03T10:07:47;1.60;;;1.50;;
13222;SDS011;6676;45.192;5.722;2023-04-03T10:10:42;1.30;;;1.20;;
13222;SDS011;6676;45.192;5.722;2023-04-03T10:13:35;1.42;;;1.27;;
13222;SDS011;6676;45.192;5.722;2023-04-03T10:16:33;1.30;;;1.02;;
13222;SDS011;6676;45.192;5.722;2023-04-03T10:19:33;1.82;;;1.70;;
13222;SDS011;6676;45.192;5.722;2023-04-03T10:22:30;1.40;;;1.30;;
13222;SDS011;6676;45.192;5.722;2023-04-03T10:25:24;1.40;;;1.30;;
13222;SDS011;6676;45.192;5.722;2023-04-03T10:28:19;2.27;;;1.50;;
13222;SDS011;6676;45.192;5.722;2023-04-03T10:31:14;1.50;;;1.40;;
13222;SDS011;6676;45.192;5.722;2023-04-03T10:34:11;2.17;;;1.30;;
13222;SDS011;6676;45.192;5.722;2023-04-03T10:37:06;1.20;;;1.10;;
13222;SDS011;6676;45.192;5.722;2023-04-03T10:40:02;1.87;;;1.00;;
13222;SDS011;6676;45.192;5.722;2023-04-03T10:42:55;1.35;;;1.25;;
13222;SDS011;6676;45.192;5.722;2023-04-03T10:45:51;1.37;;;1.10;;
13222;SDS011;6676;45.192;5.722;2023-04-03T10:49:00;1.37;;;1.27;;
13222;SDS011;6676;45.192;5.722;2023-04-03T10:51:55;1.55;;;1.12;;
13222;SDS011;6676;45.192;5.722;2023-04-03T10:54:55;2.75;;;1.35;;
13222;SDS011;6676;45.192;5.722;2023-04-03T10:57:48;1.23;;;0.83;;
13222;SDS011;6676;45.192;5.722;2023-04-03T11:03:24;1.65;;;0.70;;
13222;SDS011;6676;45.192;5.722;2023-04-03T11:06:21;0.80;;;0.80;;
13222;SDS011;6676;45.192;5.722;2023-04-03T11:09:16;1.52;;;0.68;;
13222;SDS011;6676;45.192;5.722;2023-04-03T11:12:13;1.00;;;0.62;;
13222;SDS011;6676;45.192;5.722;2023-04-03T11:15:11;1.45;;;0.60;;
13222;SDS011;6676;45.192;5.722;2023-04-03T11:18:04;1.07;;;0.65;;
13222;SDS011;6676;45.192;5.722;2023-04-03T11:21:00;0.60;;;0.60;;
13222;SDS011;6676;45.192;5.722;2023-04-03T11:23:54;1.62;;;0.57;;
13222;SDS011;6676;45.192;5.722;2023-04-03T11:26:47;1.27;;;0.57;;
13222;SDS011;6676;45.192;5.722;2023-04-03T11:29:41;1.00;;;0.65;;
13222;SDS011;6676;45.192;5.722;2023-04-03T11:32:44;0.42;;;0.40;;
13222;SDS011;6676;45.192;5.722;2023-04-03T11:35:53;2.70;;;0.70;;
13222;SDS011;6676;45.192;5.722;2023-04-03T11:38:47;0.78;;;0.70;;
13222;SDS011;6676;45.192;5.722;2023-04-03T11:41:43;1.00;;;0.90;;
13222;SDS011;6676;45.192;5.722;2023-04-03T11:44:36;0.80;;;0.60;;
13222;SDS011;6676;45.192;5.722;2023-04-03T11:47:47;1.02;;;0.60;;
13222;SDS011;6676;45.192;5.722;2023-04-03T11:50:42;0.70;;;0.50;;
13222;SDS011;6676;45.192;5.722;2023-04-03T11:53:35;0.82;;;0.62;;
13222;SDS011;6676;45.192;5.722;2023-04-03T11:56:28;1.65;;;0.70;;
13222;SDS011;6676;45.192;5.722;2023-04-03T11:59:24;0.60;;;0.60;;
13222;SDS011;6676;45.192;5.722;2023-04-03T12:02:34;0.60;;;0.60;;
13222;SDS011;6676;45.192;5.722;2023-04-03T12:05:29;1.10;;;0.65;;
13222;SDS011;6676;45.192;5.722;2023-04-03T12:08:24;0.93;;;0.80;;
13222;SDS011;6676;45.192;5.722;2023-04-03T12:11:19;1.47;;;0.72;;
13222;SDS011;6676;45.192;5.722;2023-04-03T12:14:15;0.95;;;0.72;;
13222;SDS011;6676;45.192;5.722;2023-04-03T12:17:11;0.57;;;0.57;;
13222;SDS011;6676;45.192;5.722;2023-04-03T12:26:43;1.17;;;0.82;;
13222;SDS011;6676;45.192;5.722;2023-04-03T12:29:38;1.12;;;0.82;;
13222;SDS011;6676;45.192;5.722;2023-04-03T12:32:40;3.62;;;0.90;;
13222;SDS011;6676;45.192;5.722;2023-04-03T12:35:37;1.90;;;0.95;;
13222;SDS011;6676;45.192;5.722;2023-04-03T12:38:35;2.17;;;1.10;;
13222;SDS011;6676;45.192;5.722;2023-04-03T12:41:37;1.90;;;0.70;;
13222;SDS011;6676;45.192;5.722;2023-04-03T12:44:33;1.40;;;1.10;;
13222;SDS011;6676;45.192;5.722;2023-04-03T12:47:32;1.82;;;0.60;;
13222;SDS011;6676;45.192;5.722;2023-04-03T12:50:17;3.08;;;1.12;;
13222;SDS011;6676;45.192;5.722;2023-04-03T12:53:13;2.37;;;1.02;;
13222;SDS011;6676;45.192;5.722;2023-04-03T12:56:22;1.62;;;1.30;;
13222;SDS011;6676;45.192;5.722;2023-04-03T12:59:15;1.10;;;1.00;;
13222;SDS011;6676;45.192;5.722;2023-04-03T13:02:23;2.27;;;1.20;;
13222;SDS011;6676;45.192;5.722;2023-04-03T13:05:18;1.60;;;1.50;;
13222;SDS011;6676;45.192;5.722;2023-04-03T13:08:12;2.17;;;1.50;;
13222;SDS011;6676;45.192;5.722;2023-04-03T13:11:05;1.92;;;1.75;;
13222;SDS011;6676;45.192;5.722;2023-04-03T13:13:59;1.70;;;1.30;;
13222;SDS011;6676;45.192;5.722;2023-04-03T13:16:53;2.27;;;1.70;;
13222;SDS011;6676;45.192;5.722;2023-04-03T13:19:46;2.90;;;1.70;;
13222;SDS011;6676;45.192;5.722;2023-04-03T13:22:39;2.02;;;1.80;;
13222;SDS011;6676;45.192;5.722;2023-04-03T13:25:35;2.55;;;1.92;;
13222;SDS011;6676;45.192;5.722;2023-04-03T13:28:28;1.95;;;1.82;;
13222;SDS011;6676;45.192;5.722;2023-04-03T13:31:22;3.27;;;1.90;;
13222;SDS011;6676;45.192;5.722;2023-04-03T13:34:16;2.12;;;1.75;;
13222;SDS011;6676;45.192;5.722;2023-04-03T13:37:13;2.70;;;1.87;;
13222;SDS011;6676;45.192;5.722;2023-04-03T13:40:11;3.33;;;2.10;;
13222;SDS011;6676;45.192;5.722;2023-04-03T13:43:05;1.98;;;1.77;;
13222;SDS011;6676;45.192;5.722;2023-04-03T13:45:59;1.70;;;1.25;;
13222;SDS011;6676;45.192;5.722;2023-04-03T13:48:55;1.98;;;1.70;;
13222;SDS011;6676;45.192;5.722;2023-04-03T13:51:46;2.08;;;1.87;;
13222;SDS011;6676;45.192;5.722;2023-04-03T13:54:41;2.20;;;1.98;;
13222;SDS011;6676;45.192;5.722;2023-04-03T13:57:34;2.15;;;1.85;;
13222;SDS011;6676;45.192;5.722;2023-04-03T14:00:28;2.05;;;1.85;;
13222;SDS011;6676;45.192;5.722;2023-04-03T14:03:24;1.85;;;1.55;;
13222;SDS011;6676;45.192;5.722;2023-04-03T14:06:17;2.30;;;2.10;;
13222;SDS011;6676;45.192;5.722;2023-04-03T14:09:09;4.83;;;2.17;;
13222;SDS011;6676;45.192;5.722;2023-04-03T14:12:02;1.90;;;1.72;;
13222;SDS011;6676;45.192;5.722;2023-04-03T14:14:55;2.25;;;2.05;;
13222;SDS011;6676;45.192;5.722;2023-04-03T14:17:47;2.50;;;1.90;;
13222;SDS011;6676;45.192;5.722;2023-04-03T14:20:40;2.22;;;2.00;;
13222;SDS011;6676;45.192;5.722;2023-04-03T14:23:32;5.22;;;2.35;;
13222;SDS011;6676;45.192;5.722;2023-04-03T14:26:24;1.87;;;1.65;;
13222;SDS011;6676;45.192;5.722;2023-04-03T14:29:19;2.50;;;2.30;;
13222;SDS011;6676;45.192;5.722;2023-04-03T14:32:12;1.40;;;1.25;;
13222;SDS011;6676;45.192;5.722;2023-04-03T14:35:04;2.35;;;2.12;;
13222;SDS011;6676;45.192;5.722;2023-04-03T14:37:56;2.70;;;2.00;;
13222;SDS011;6676;45.192;5.722;2023-04-03T14:40:48;2.12;;;1.85;;
13222;SDS011;6676;45.192;5.722;2023-04-03T14:43:42;1.72;;;1.60;;
13222;SDS011;6676;45.192;5.722;2023-04-03T14:46:35;2.20;;;2.00;;
13222;SDS011;6676;45.192;5.722;2023-04-03T14:49:30;2.20;;;1.75;;
13222;SDS011;6676;45.192;5.722;2023-04-03T14:52:22;3.67;;;1.75;;
13222;SDS011;6676;45.192;5.722;2023-04-03T14:55:16;1.92;;;1.50;;
13222;SDS011;6676;45.192;5.722;2023-04-03T14:58:09;4.20;;;2.40;;
13222;SDS011;6676;45.192;5.722;2023-04-03T15:01:03;3.47;;;2.08;;
13222;SDS011;6676;45.192;5.722;2023-04-03T15:03:56;2.22;;;2.00;;
13222;SDS011;6676;45.192;5.722;2023-04-03T15:06:47;2.45;;;1.82;;
13222;SDS011;6676;45.192;5.722;2023-04-03T15:09:41;3.22;;;1.47;;
13222;SDS011;6676;45.192;5.722;2023-04-03T15:12:32;1.98;;;1.77;;
13222;SDS011;6676;45.192;5.722;2023-04-03T15:15:24;2.40;;;1.87;;
13222;SDS011;6676;45.192;5.722;2023-04-03T15:18:20;2.95;;;2.40;;
13222;SDS011;6676;45.192;5.722;2023-04-03T15:21:01;2.05;;;1.65;;
13222;SDS011;6676;45.192;5.722;2023-04-03T15:23:52;2.15;;;1.98;;
13222;SDS011;6676;45.192;5.722;2023-04-03T15:29:23;2.65;;;2.02;;
13222;SDS011;6676;45.192;5.722;2023-04-03T15:32:15;2.45;;;2.00;;
13222;SDS011;6676;45.192;5.722;2023-04-03T15:35:06;2.67;;;2.08;;
13222;SDS011;6676;45.192;5.722;2023-04-03T15:37:58;1.80;;;1.50;;
13222;SDS011;6676;45.192;5.722;2023-04-03T15:40:49;2.85;;;2.27;;
13222;SDS011;6676;45.192;5.722;2023-04-03T15:43:42;1.82;;;1.72;;
13222;SDS011;6676;45.192;5.722;2023-04-03T15:46:33;5.33;;;1.98;;
13222;SDS011;6676;45.192;5.722;2023-04-03T15:49:25;2.22;;;1.80;;
13222;SDS011;6676;45.192;5.722;2023-04-03T15:52:17;2.02;;;1.82;;
13222;SDS011;6676;45.192;5.722;2023-04-03T15:55:09;2.30;;;1.98;;
13222;SDS011;6676;45.192;5.722;2023-04-03T15:58:00;2.25;;;1.98;;
13222;SDS011;6676;45.192;5.722;2023-04-03T16:00:40;1.92;;;1.47;;
13222;SDS011;6676;45.192;5.722;2023-04-03T16:03:31;2.45;;;1.82;;
13222;SDS011;6676;45.192;5.722;2023-04-03T16:06:22;2.17;;;1.47;;
13222;SDS011;6676;45.192;5.722;2023-04-03T16:09:17;1.67;;;1.25;;
13222;SDS011;6676;45.192;5.722;2023-04-03T16:12:08;2.10;;;1.75;;
13222;SDS011;6676;45.192;5.722;2023-04-03T16:14:59;2.17;;;1.87;;
13222;SDS011;6676;45.192;5.722;2023-04-03T16:17:51;3.17;;;1.92;;
13222;SDS011;6676;45.192;5.722;2023-04-03T16:20:43;2.15;;;1.70;;
13222;SDS011;6676;45.192;5.722;2023-04-03T16:23:35;1.45;;;1.27;;
13222;SDS011;6676;45.192;5.722;2023-04-03T16:26:26;2.60;;;2.00;;
13222;SDS011;6676;45.192;5.722;2023-04-03T16:29:18;2.85;;;2.05;;
13222;SDS011;6676;45.192;5.722;2023-04-03T16:32:09;1.77;;;1.42;;
13222;SDS011;6676;45.192;5.722;2023-04-03T16:35:01;2.12;;;1.40;;
13222;SDS011;6676;45.192;5.722;2023-04-03T16:37:54;2.42;;;1.50;;
13222;SDS011;6676;45.192;5.722;2023-04-03T16:40:44;1.72;;;1.62;;
13222;SDS011;6676;45.192;5.722;2023-04-03T16:43:36;1.98;;;1.50;;
13222;SDS011;6676;45.192;5.722;2023-04-03T16:46:28;2.77;;;1.47;;
13222;SDS011;6676;45.192;5.722;2023-04-03T16:49:19;1.52;;;1.42;;
13222;SDS011;6676;45.192;5.722;2023-04-03T16:52:11;2.60;;;1.77;;
13222;SDS011;6676;45.192;5.722;2023-04-03T16:55:03;1.62;;;1.50;;
13222;SDS011;6676;45.192;5.722;2023-04-03T16:57:55;1.50;;;1.17;;
13222;SDS011;6676;45.192;5.722;2023-04-03T17:00:46;2.22;;;1.60;;
13222;SDS011;6676;45.192;5.722;2023-04-03T17:03:38;1.95;;;1.40;;
13222;SDS011;6676;45.192;5.722;2023-04-03T17:06:30;2.67;;;1.70;;
13222;SDS011;6676;45.192;5.722;2023-04-03T17:09:21;2.58;;;1.57;;
13222;SDS011;6676;45.192;5.722;2023-04-03T17:12:12;2.17;;;1.37;;
13222;SDS011;6676;45.192;5.722;2023-04-03T17:15:05;1.60;;;1.17;;
13222;SDS011;6676;45.192;5.722;2023-04-03T17:17:58;1.77;;;1.40;;
13222;SDS011;6676;45.192;5.722;2023-04-03T17:20:50;1.12;;;1.00;;
13222;SDS011;6676;45.192;5.722;2023-04-03T17:23:42;1.80;;;1.30;;
13222;SDS011;6676;45.192;5.722;2023-04-03T17:26:23;1.37;;;0.85;;
13222;SDS011;6676;45.192;5.722;2023-04-03T17:29:15;1.10;;;1.00;;
13222;SDS011;6676;45.192;5.722;2023-04-03T17:32:06;1.30;;;1.02;;
13222;SDS011;6676;45.192;5.722;2023-04-03T17:34:58;2.30;;;1.40;;
13222;SDS011;6676;45.192;5.722;2023-04-03T17:37:50;1.35;;;1.10;;
13222;SDS011;6676;45.192;5.722;2023-04-03T17:40:41;0.90;;;0.90;;
13222;SDS011;6676;45.192;5.722;2023-04-03T17:43:33;1.17;;;0.80;;
13222;SDS011;6676;45.192;5.722;2023-04-03T17:46:25;0.98;;;0.88;;
13222;SDS011;6676;45.192;5.722;2023-04-03T17:49:18;1.22;;;0.80;;
13222;SDS011;6676;45.192;5.722;2023-04-03T17:52:09;1.20;;;0.70;;
13222;SDS011;6676;45.192;5.722;2023-04-03T17:55:01;1.25;;;0.93;;
13222;SDS011;6676;45.192;5.722;2023-04-03T17:57:52;1.00;;;0.65;;
13222;SDS011;6676;45.192;5.722;2023-04-03T18:00:44;0.98;;;0.88;;
13222;SDS011;6676;45.192;5.722;2023-04-03T18:03:35;1.05;;;0.88;;